createdAt,value
2023-04-10T04:44:31.942Z,100616.07
2023-04-10T04:47:11.608Z,100620.08
2023-04-10T04:50:15.742Z,100623.94
2023-04-10T04:53:04.239Z,100624.65
2023-04-10T04:55:43.559Z,100621.52
2023-04-10T04:58:30.843Z,100628.00
2023-04-10T05:01:31.213Z,100629.84
2023-04-10T05:04:25.253Z,100630.73
2023-04-10T05:07:16.244Z,100632.48
2023-04-10T05:10:02.888Z,100633.54
2023-04-10T05:12:41.998Z,100633.90
2023-04-10T05:15:29.302Z,100629.31
2023-04-10T05:18:23.899Z,100627.17
2023-04-10T05:21:21.578Z,100635.67
2023-04-10T05:24:13.692Z,100636.50
2023-04-10T05:27:12.984Z,100643.64
2023-04-10T05:30:08.993Z,100642.09
2023-04-10T05:33:01.095Z,100652.02
2023-04-10T05:35:50.391Z,100649.91
2023-04-10T05:38:43.763Z,100654.56
2023-04-10T05:41:39.763Z,100657.52
2023-04-10T05:44:28.193Z,100659.71
2023-04-10T05:47:02.092Z,100656.02
2023-04-10T05:50:02.365Z,100660.31
2023-04-10T05:52:55.101Z,100660.13
2023-04-10T05:55:37.034Z,100659.61
2023-04-10T05:58:19.223Z,100656.86
2023-04-10T06:01:24.855Z,100662.00
2023-04-10T06:04:00.391Z,100667.29
2023-04-10T06:06:33.814Z,100668.08
2023-04-10T06:09:03.252Z,100665.69
2023-04-10T06:11:31.962Z,100667.33
2023-04-10T06:14:01.075Z,100676.46
2023-04-10T06:16:49.889Z,100676.96
2023-04-10T06:19:21.728Z,100676.16
2023-04-10T06:21:49.850Z,100673.98
2023-04-10T06:24:24.348Z,100672.00
2023-04-10T06:26:53.902Z,100670.15
2023-04-10T06:29:22.109Z,100669.13
2023-04-10T06:31:52.020Z,100667.92
2023-04-10T06:34:21.081Z,100665.31
2023-04-10T06:37:00.646Z,100663.59
2023-04-10T06:39:31.166Z,100663.34
2023-04-10T06:41:59.744Z,100666.88
2023-04-10T06:44:45.515Z,100666.00
2023-04-10T06:47:13.775Z,100663.59
2023-04-10T06:49:50.145Z,100663.79
2023-04-10T06:52:18.596Z,100660.72
2023-04-10T06:54:46.826Z,100660.42
2023-04-10T06:57:16.086Z,100662.05
2023-04-10T06:59:45.719Z,100657.04
2023-04-10T07:02:14.277Z,100650.63
2023-04-10T07:04:49.075Z,100648.91
2023-04-10T07:07:19.596Z,100649.27
2023-04-10T07:09:56.069Z,100653.63
2023-04-10T07:12:31.772Z,100661.15
2023-04-10T07:15:03.646Z,100657.14
2023-04-10T07:17:32.430Z,100658.72
2023-04-10T07:20:00.894Z,100660.13
2023-04-10T07:22:31.040Z,100666.77
2023-04-10T07:24:59.544Z,100667.13
2023-04-10T07:27:31.088Z,100666.07
2023-04-10T07:29:59.201Z,100667.48
2023-04-10T07:32:27.414Z,100669.05
2023-04-10T07:34:56.089Z,100668.70
2023-04-10T07:37:30.291Z,100668.88
2023-04-10T07:40:00.862Z,100666.98
2023-04-10T07:42:29.221Z,100667.89
2023-04-10T07:44:59.992Z,100674.17
2023-04-10T07:47:28.463Z,100672.95
2023-04-10T07:49:56.695Z,100670.85
2023-04-10T07:52:25.542Z,100669.29
2023-04-10T07:54:54.123Z,100669.09
2023-04-10T07:57:24.663Z,100667.19
2023-04-10T07:59:56.028Z,100661.76
2023-04-10T08:02:29.950Z,100657.20
2023-04-10T08:05:01.290Z,100657.38
2023-04-10T08:07:30.633Z,100660.52
2023-04-10T08:09:59.501Z,100656.85
2023-04-10T08:12:37.294Z,100653.86
2023-04-10T08:15:11.124Z,100650.35
2023-04-10T08:17:58.738Z,100653.15
2023-04-10T08:20:36.887Z,100651.55
2023-04-10T08:23:19.155Z,100648.06
2023-04-10T08:25:50.435Z,100646.81
2023-04-10T08:28:19.667Z,100643.48
2023-04-10T08:30:48.368Z,100644.52
2023-04-10T08:33:17.522Z,100645.76
2023-04-10T08:35:51.447Z,100647.36
2023-04-10T08:38:25.032Z,100645.63
2023-04-10T08:40:53.288Z,100644.08
2023-04-10T08:43:22.054Z,100643.38
2023-04-10T08:45:56.109Z,100646.02
2023-04-10T08:48:27.927Z,100643.02
2023-04-10T08:50:56.358Z,100640.39
2023-04-10T08:53:24.958Z,100638.28
2023-04-10T08:55:53.343Z,100633.38
2023-04-10T08:58:21.934Z,100631.27
2023-04-10T09:00:50.338Z,100626.52
2023-04-10T09:03:21.736Z,100625.78
2023-04-10T09:05:51.002Z,100623.29
2023-04-10T09:08:20.765Z,100620.40
2023-04-10T09:10:53.915Z,100618.91
2023-04-10T09:13:35.619Z,100622.13
2023-04-10T09:16:06.500Z,100616.07
2023-04-10T09:18:51.326Z,100619.16
2023-04-10T09:21:22.524Z,100620.22
2023-04-10T09:24:00.148Z,100619.73
2023-04-10T09:26:29.169Z,100622.01
2023-04-10T09:29:07.553Z,100618.42
2023-04-10T09:31:37.669Z,100613.23
2023-04-10T09:34:29.498Z,100611.55
2023-04-10T09:37:04.922Z,100603.52
2023-04-10T09:40:31.732Z,100599.91
2023-04-10T09:44:28.154Z,100599.71
2023-04-10T09:47:31.759Z,100593.29
2023-04-10T09:50:07.596Z,100589.17
2023-04-10T09:52:41.773Z,100585.77
2023-04-10T09:55:11.303Z,100581.87
2023-04-10T09:57:51.624Z,100579.96
2023-04-10T10:00:20.243Z,100579.52
2023-04-10T10:02:56.800Z,100579.21
2023-04-10T10:05:33.100Z,100579.04
2023-04-10T10:08:02.431Z,100578.77
2023-04-10T10:10:32.434Z,100576.15
2023-04-10T10:13:02.322Z,100571.32
2023-04-10T10:15:52.198Z,100570.61
2023-04-10T10:18:23.322Z,100570.93
2023-04-10T10:20:51.567Z,100573.97
2023-04-10T10:23:26.580Z,100567.93
2023-04-10T10:25:54.993Z,100563.94
2023-04-10T10:28:23.213Z,100565.20
2023-04-10T10:30:51.613Z,100561.95
2023-04-10T10:33:20.224Z,100559.20
2023-04-10T10:35:50.176Z,100557.98
2023-04-10T10:38:18.621Z,100558.35
2023-04-10T10:41:16.849Z,100559.20
2023-04-10T10:43:45.122Z,100553.93
2023-04-10T10:46:19.591Z,100554.59
2023-04-10T10:49:00.441Z,100552.27
2023-04-10T10:51:50.388Z,100553.72
2023-04-10T10:54:32.254Z,100548.55
2023-04-10T10:57:09.300Z,100547.79
2023-04-10T10:59:43.442Z,100548.16
2023-04-10T11:02:18.387Z,100548.05
2023-04-10T11:04:48.387Z,100547.05
2023-04-10T11:07:16.652Z,100540.55
2023-04-10T11:09:53.639Z,100540.13
2023-04-10T11:12:25.511Z,100540.90
2023-04-10T11:15:01.388Z,100538.92
2023-04-10T11:17:54.138Z,100529.74
2023-04-10T11:20:27.463Z,100523.44
2023-04-10T11:23:12.139Z,100525.05
2023-04-10T11:25:53.747Z,100522.27
2023-04-10T11:28:38.780Z,100523.84
2023-04-10T11:31:22.792Z,100518.70
2023-04-10T11:34:01.320Z,100524.45
2023-04-10T11:36:29.519Z,100518.85
2023-04-10T11:38:57.703Z,100520.71
2023-04-10T11:41:30.871Z,100522.09
2023-04-10T11:44:03.155Z,100521.98
2023-04-10T11:46:32.277Z,100517.05
2023-04-10T11:49:01.892Z,100517.88
2023-04-10T11:51:31.079Z,100515.54
2023-04-10T11:54:21.706Z,100516.16
2023-04-10T11:57:01.585Z,100512.98
2023-04-10T11:59:31.037Z,100510.11
2023-04-10T12:02:09.571Z,100506.67
2023-04-10T12:04:38.413Z,100507.38
2023-04-10T12:07:08.126Z,100505.63
2023-04-10T12:09:36.515Z,100501.16
2023-04-10T12:12:06.045Z,100494.13
2023-04-10T12:14:36.483Z,100491.65
2023-04-10T12:17:06.373Z,100488.59
2023-04-10T12:19:53.422Z,100486.88
2023-04-10T12:22:22.359Z,100486.24
2023-04-10T12:24:54.204Z,100476.36
2023-04-10T12:27:23.670Z,100471.25
2023-04-10T12:29:54.253Z,100469.73
2023-04-10T12:32:22.830Z,100467.60
2023-04-10T12:34:57.415Z,100467.20
2023-04-10T12:37:26.160Z,100463.86
2023-04-10T12:40:07.560Z,100465.42
2023-04-10T12:42:40.263Z,100462.67
2023-04-10T12:45:10.199Z,100462.95
2023-04-10T12:47:47.137Z,100457.34
2023-04-10T12:50:19.123Z,100453.86
2023-04-10T12:53:09.152Z,100449.71
2023-04-10T12:55:38.119Z,100450.99
2023-04-10T12:58:20.269Z,100454.50
2023-04-10T13:00:48.994Z,100462.04
2023-04-10T13:03:17.400Z,100466.73
2023-04-10T13:05:46.188Z,100472.56
2023-04-10T13:08:14.727Z,100467.99
2023-04-10T13:10:43.678Z,100466.13
2023-04-10T13:13:14.434Z,100462.12
2023-04-10T13:15:43.293Z,100456.20
2023-04-10T13:18:11.728Z,100452.45
2023-04-10T13:20:40.798Z,100446.14
2023-04-10T13:23:10.082Z,100443.25
2023-04-10T13:25:40.077Z,100436.98
